sensor_id;sensor_type;location;lat;lon;timestamp;temperature;humidity
39881;DHT22;25554;44.954;10.068;2023-09-19T00:00:39;20.30;99.90
39881;DHT22;25554;44.954;10.068;2023-09-19T00:03:07;20.30;99.90
39881;DHT22;25554;44.954;10.068;2023-09-19T00:05:38;20.30;99.90
39881;DHT22;25554;44.954;10.068;2023-09-19T00:08:05;20.30;99.90
39881;DHT22;25554;44.954;10.068;2023-09-19T00:10:33;20.20;99.90
39881;DHT22;25554;44.954;10.068;2023-09-19T00:13:04;20.20;99.90
39881;DHT22;25554;44.954;10.068;2023-09-19T00:15:45;20.20;99.90
39881;DHT22;25554;44.954;10.068;2023-09-19T00:18:15;20.20;99.90
39881;DHT22;25554;44.954;10.068;2023-09-19T00:20:43;20.10;99.90
39881;DHT22;25554;44.954;10.068;2023-09-19T00:23:13;20.10;99.90
39881;DHT22;25554;44.954;10.068;2023-09-19T00:25:40;20.10;99.90
39881;DHT22;25554;44.954;10.068;2023-09-19T00:28:07;20.00;99.90
39881;DHT22;25554;44.954;10.068;2023-09-19T00:30:34;20.00;99.90
39881;DHT22;25554;44.954;10.068;2023-09-19T00:33:01;20.00;99.90
39881;DHT22;25554;44.954;10.068;2023-09-19T00:35:31;20.00;99.90
39881;DHT22;25554;44.954;10.068;2023-09-19T00:37:59;20.00;99.90
39881;DHT22;25554;44.954;10.068;2023-09-19T00:40:25;20.00;99.90
39881;DHT22;25554;44.954;10.068;2023-09-19T00:42:57;19.90;99.90
39881;DHT22;25554;44.954;10.068;2023-09-19T00:45:26;19.90;99.90
39881;DHT22;25554;44.954;10.068;2023-09-19T00:47:52;19.90;99.90
39881;DHT22;25554;44.954;10.068;2023-09-19T00:50:19;19.90;99.90
39881;DHT22;25554;44.954;10.068;2023-09-19T00:52:48;19.90;99.90
39881;DHT22;25554;44.954;10.068;2023-09-19T00:55:16;19.90;99.90
39881;DHT22;25554;44.954;10.068;2023-09-19T00:57:46;19.80;99.90
39881;DHT22;25554;44.954;10.068;2023-09-19T01:00:13;19.90;99.90
39881;DHT22;25554;44.954;10.068;2023-09-19T01:02:46;19.90;99.90
39881;DHT22;25554;44.954;10.068;2023-09-19T01:05:13;19.90;99.90
39881;DHT22;25554;44.954;10.068;2023-09-19T01:07:39;19.90;99.90
39881;DHT22;25554;44.954;10.068;2023-09-19T01:10:13;19.90;99.90
39881;DHT22;25554;44.954;10.068;2023-09-19T01:20:45;19.80;99.90
39881;DHT22;25554;44.954;10.068;2023-09-19T01:23:18;19.70;99.90
39881;DHT22;25554;44.954;10.068;2023-09-19T01:26:03;19.80;99.90
39881;DHT22;25554;44.954;10.068;2023-09-19T01:28:51;19.80;99.90
39881;DHT22;25554;44.954;10.068;2023-09-19T01:31:21;19.70;99.90
39881;DHT22;25554;44.954;10.068;2023-09-19T01:34:01;19.70;99.90
39881;DHT22;25554;44.954;10.068;2023-09-19T01:36:33;19.70;99.90
39881;DHT22;25554;44.954;10.068;2023-09-19T01:39:08;19.70;99.90
39881;DHT22;25554;44.954;10.068;2023-09-19T01:44:24;19.70;99.90
39881;DHT22;25554;44.954;10.068;2023-09-19T01:46:54;19.70;99.90
39881;DHT22;25554;44.954;10.068;2023-09-19T01:52:22;19.70;99.90
39881;DHT22;25554;44.954;10.068;2023-09-19T01:54:56;19.70;99.90
39881;DHT22;25554;44.954;10.068;2023-09-19T01:57:33;19.70;99.90
39881;DHT22;25554;44.954;10.068;2023-09-19T02:00:07;19.70;99.90
39881;DHT22;25554;44.954;10.068;2023-09-19T02:02:47;19.70;99.90
39881;DHT22;25554;44.954;10.068;2023-09-19T02:05:21;19.70;99.90
39881;DHT22;25554;44.954;10.068;2023-09-19T02:07:48;19.60;99.90
39881;DHT22;25554;44.954;10.068;2023-09-19T02:10:16;19.70;99.90
39881;DHT22;25554;44.954;10.068;2023-09-19T02:12:43;19.60;99.90
39881;DHT22;25554;44.954;10.068;2023-09-19T02:15:09;19.60;99.90
39881;DHT22;25554;44.954;10.068;2023-09-19T02:17:36;19.60;99.90
39881;DHT22;25554;44.954;10.068;2023-09-19T02:20:02;19.60;99.90
39881;DHT22;25554;44.954;10.068;2023-09-19T02:22:37;19.50;99.90
39881;DHT22;25554;44.954;10.068;2023-09-19T02:25:04;19.40;99.90
39881;DHT22;25554;44.954;10.068;2023-09-19T02:27:31;19.40;99.90
39881;DHT22;25554;44.954;10.068;2023-09-19T02:29:58;19.30;99.90
39881;DHT22;25554;44.954;10.068;2023-09-19T02:32:25;19.30;99.90
39881;DHT22;25554;44.954;10.068;2023-09-19T02:34:51;19.20;99.90
39881;DHT22;25554;44.954;10.068;2023-09-19T02:37:17;19.20;99.90
39881;DHT22;25554;44.954;10.068;2023-09-19T02:39:45;19.20;99.90
39881;DHT22;25554;44.954;10.068;2023-09-19T02:42:12;19.20;99.90
39881;DHT22;25554;44.954;10.068;2023-09-19T02:44:38;19.20;99.90
39881;DHT22;25554;44.954;10.068;2023-09-19T02:47:06;19.10;99.90
39881;DHT22;25554;44.954;10.068;2023-09-19T02:49:32;19.00;99.90
39881;DHT22;25554;44.954;10.068;2023-09-19T02:51:59;18.90;99.90
39881;DHT22;25554;44.954;10.068;2023-09-19T02:54:25;18.90;99.90
39881;DHT22;25554;44.954;10.068;2023-09-19T02:56:52;18.90;99.90
39881;DHT22;25554;44.954;10.068;2023-09-19T02:59:20;18.90;99.90
39881;DHT22;25554;44.954;10.068;2023-09-19T03:01:46;18.90;99.90
39881;DHT22;25554;44.954;10.068;2023-09-19T03:04:14;19.00;99.90
39881;DHT22;25554;44.954;10.068;2023-09-19T03:06:47;19.00;99.90
39881;DHT22;25554;44.954;10.068;2023-09-19T03:09:15;19.00;99.90
39881;DHT22;25554;44.954;10.068;2023-09-19T03:11:42;19.00;99.90
39881;DHT22;25554;44.954;10.068;2023-09-19T03:14:10;19.00;99.90
39881;DHT22;25554;44.954;10.068;2023-09-19T03:16:37;19.00;99.90
39881;DHT22;25554;44.954;10.068;2023-09-19T03:19:03;19.00;99.90
39881;DHT22;25554;44.954;10.068;2023-09-19T03:21:32;19.00;99.90
39881;DHT22;25554;44.954;10.068;2023-09-19T03:23:58;19.00;99.90
39881;DHT22;25554;44.954;10.068;2023-09-19T03:26:24;18.90;99.90
39881;DHT22;25554;44.954;10.068;2023-09-19T03:28:53;18.80;99.90
39881;DHT22;25554;44.954;10.068;2023-09-19T03:31:20;18.80;99.90
39881;DHT22;25554;44.954;10.068;2023-09-19T03:33:47;18.80;99.90
39881;DHT22;25554;44.954;10.068;2023-09-19T03:36:13;18.70;99.90
39881;DHT22;25554;44.954;10.068;2023-09-19T03:38:43;18.70;99.90
39881;DHT22;25554;44.954;10.068;2023-09-19T03:41:09;18.60;99.90
39881;DHT22;25554;44.954;10.068;2023-09-19T03:43:37;18.50;99.90
39881;DHT22;25554;44.954;10.068;2023-09-19T03:46:04;18.50;99.90
39881;DHT22;25554;44.954;10.068;2023-09-19T03:48:32;18.40;99.90
39881;DHT22;25554;44.954;10.068;2023-09-19T03:50:59;18.40;99.90
39881;DHT22;25554;44.954;10.068;2023-09-19T03:53:26;18.40;99.90
39881;DHT22;25554;44.954;10.068;2023-09-19T03:55:53;18.40;99.90
39881;DHT22;25554;44.954;10.068;2023-09-19T03:58:19;18.40;99.90
39881;DHT22;25554;44.954;10.068;2023-09-19T04:00:46;18.40;99.90
39881;DHT22;25554;44.954;10.068;2023-09-19T04:03:14;18.40;99.90
39881;DHT22;25554;44.954;10.068;2023-09-19T04:05:46;18.40;99.90
39881;DHT22;25554;44.954;10.068;2023-09-19T04:08:15;18.40;99.90
39881;DHT22;25554;44.954;10.068;2023-09-19T04:10:42;18.40;99.90
39881;DHT22;25554;44.954;10.068;2023-09-19T04:13:09;18.50;99.90
39881;DHT22;25554;44.954;10.068;2023-09-19T04:15:36;18.50;99.90
39881;DHT22;25554;44.954;10.068;2023-09-19T04:18:03;18.50;99.90
39881;DHT22;25554;44.954;10.068;2023-09-19T04:20:30;18.40;99.90
39881;DHT22;25554;44.954;10.068;2023-09-19T04:22:56;18.40;99.90
39881;DHT22;25554;44.954;10.068;2023-09-19T04:25:22;18.50;99.90
39881;DHT22;25554;44.954;10.068;2023-09-19T04:27:49;18.40;99.90
39881;DHT22;25554;44.954;10.068;2023-09-19T04:30:15;18.40;99.90
39881;DHT22;25554;44.954;10.068;2023-09-19T04:32:42;18.40;99.90
39881;DHT22;25554;44.954;10.068;2023-09-19T04:35:09;18.40;99.90
39881;DHT22;25554;44.954;10.068;2023-09-19T04:37:40;18.50;99.90
39881;DHT22;25554;44.954;10.068;2023-09-19T04:40:08;18.50;99.90
39881;DHT22;25554;44.954;10.068;2023-09-19T04:42:40;18.50;99.90
39881;DHT22;25554;44.954;10.068;2023-09-19T04:45:08;18.50;99.90
39881;DHT22;25554;44.954;10.068;2023-09-19T04:47:38;18.50;99.90
39881;DHT22;25554;44.954;10.068;2023-09-19T04:50:09;18.50;99.90
39881;DHT22;25554;44.954;10.068;2023-09-19T04:52:43;18.50;99.90
39881;DHT22;25554;44.954;10.068;2023-09-19T04:55:14;18.50;99.90
39881;DHT22;25554;44.954;10.068;2023-09-19T04:57:44;18.50;99.90
39881;DHT22;25554;44.954;10.068;2023-09-19T05:00:15;18.50;99.90
39881;DHT22;25554;44.954;10.068;2023-09-19T05:02:43;18.50;99.90
39881;DHT22;25554;44.954;10.068;2023-09-19T05:05:09;18.50;99.90
39881;DHT22;25554;44.954;10.068;2023-09-19T05:07:43;18.60;99.90
39881;DHT22;25554;44.954;10.068;2023-09-19T05:10:10;18.50;99.90
39881;DHT22;25554;44.954;10.068;2023-09-19T05:12:37;18.60;99.90
39881;DHT22;25554;44.954;10.068;2023-09-19T05:15:04;18.60;99.90
39881;DHT22;25554;44.954;10.068;2023-09-19T05:17:33;18.70;99.90
39881;DHT22;25554;44.954;10.068;2023-09-19T05:20:01;18.60;99.90
39881;DHT22;25554;44.954;10.068;2023-09-19T05:22:44;18.70;99.90
39881;DHT22;25554;44.954;10.068;2023-09-19T05:25:12;18.70;99.90
39881;DHT22;25554;44.954;10.068;2023-09-19T05:27:43;18.60;99.90
39881;DHT22;25554;44.954;10.068;2023-09-19T05:30:10;18.60;99.90
39881;DHT22;25554;44.954;10.068;2023-09-19T05:32:36;18.60;99.90
39881;DHT22;25554;44.954;10.068;2023-09-19T05:35:03;18.60;99.90
39881;DHT22;25554;44.954;10.068;2023-09-19T05:37:34;18.60;99.90
39881;DHT22;25554;44.954;10.068;2023-09-19T05:40:01;18.60;99.90
39881;DHT22;25554;44.954;10.068;2023-09-19T05:42:27;18.60;99.90
39881;DHT22;25554;44.954;10.068;2023-09-19T05:44:54;18.50;99.90
39881;DHT22;25554;44.954;10.068;2023-09-19T05:47:21;18.60;99.90
39881;DHT22;25554;44.954;10.068;2023-09-19T05:49:48;18.70;99.90
39881;DHT22;25554;44.954;10.068;2023-09-19T05:52:16;18.80;99.90
39881;DHT22;25554;44.954;10.068;2023-09-19T05:54:43;19.00;99.90
39881;DHT22;25554;44.954;10.068;2023-09-19T05:57:10;18.90;99.90
39881;DHT22;25554;44.954;10.068;2023-09-19T05:59:38;18.90;99.90
39881;DHT22;25554;44.954;10.068;2023-09-19T06:02:06;19.00;99.90
39881;DHT22;25554;44.954;10.068;2023-09-19T06:04:32;19.10;99.90
39881;DHT22;25554;44.954;10.068;2023-09-19T06:06:59;19.20;99.90
39881;DHT22;25554;44.954;10.068;2023-09-19T06:09:26;19.20;99.90
39881;DHT22;25554;44.954;10.068;2023-09-19T06:11:57;19.30;99.90
39881;DHT22;25554;44.954;10.068;2023-09-19T06:14:23;19.40;99.90
39881;DHT22;25554;44.954;10.068;2023-09-19T06:16:50;19.50;99.90
39881;DHT22;25554;44.954;10.068;2023-09-19T06:19:20;20.20;99.90
39881;DHT22;25554;44.954;10.068;2023-09-19T06:21:49;21.20;99.90
39881;DHT22;25554;44.954;10.068;2023-09-19T06:24:15;21.70;99.90
39881;DHT22;25554;44.954;10.068;2023-09-19T06:26:42;21.70;99.90
39881;DHT22;25554;44.954;10.068;2023-09-19T06:29:10;21.20;99.90
39881;DHT22;25554;44.954;10.068;2023-09-19T06:31:39;21.40;99.90
39881;DHT22;25554;44.954;10.068;2023-09-19T06:34:05;21.20;99.90
39881;DHT22;25554;44.954;10.068;2023-09-19T06:36:31;21.10;99.90
39881;DHT22;25554;44.954;10.068;2023-09-19T06:38:57;20.90;99.90
39881;DHT22;25554;44.954;10.068;2023-09-19T06:41:25;20.80;99.90
39881;DHT22;25554;44.954;10.068;2023-09-19T06:43:51;20.80;99.90
39881;DHT22;25554;44.954;10.068;2023-09-19T06:46:19;20.70;99.90
39881;DHT22;25554;44.954;10.068;2023-09-19T06:48:46;20.80;99.90
39881;DHT22;25554;44.954;10.068;2023-09-19T06:51:14;20.90;99.90
39881;DHT22;25554;44.954;10.068;2023-09-19T06:53:42;21.10;99.90
39881;DHT22;25554;44.954;10.068;2023-09-19T06:56:08;21.20;99.90
39881;DHT22;25554;44.954;10.068;2023-09-19T06:58:35;21.40;99.90
39881;DHT22;25554;44.954;10.068;2023-09-19T07:01:02;21.50;99.90
39881;DHT22;25554;44.954;10.068;2023-09-19T07:03:29;21.50;99.90
39881;DHT22;25554;44.954;10.068;2023-09-19T07:05:56;21.70;99.90
39881;DHT22;25554;44.954;10.068;2023-09-19T07:08:24;21.70;99.90
39881;DHT22;25554;44.954;10.068;2023-09-19T07:10:50;21.80;99.90
39881;DHT22;25554;44.954;10.068;2023-09-19T07:13:18;21.90;99.90
39881;DHT22;25554;44.954;10.068;2023-09-19T07:15:45;22.00;99.90
39881;DHT22;25554;44.954;10.068;2023-09-19T07:18:18;22.10;99.90
39881;DHT22;25554;44.954;10.068;2023-09-19T07:20:46;22.20;99.90
39881;DHT22;25554;44.954;10.068;2023-09-19T07:23:19;22.40;99.90
39881;DHT22;25554;44.954;10.068;2023-09-19T07:25:49;22.60;99.90
39881;DHT22;25554;44.954;10.068;2023-09-19T07:28:16;22.70;99.90
39881;DHT22;25554;44.954;10.068;2023-09-19T07:30:42;22.70;99.90
39881;DHT22;25554;44.954;10.068;2023-09-19T07:33:08;22.80;99.90
39881;DHT22;25554;44.954;10.068;2023-09-19T07:35:38;22.50;99.90
39881;DHT22;25554;44.954;10.068;2023-09-19T07:38:07;22.20;99.90
39881;DHT22;25554;44.954;10.068;2023-09-19T07:40:34;22.20;99.90
39881;DHT22;25554;44.954;10.068;2023-09-19T07:43:00;22.30;99.90
39881;DHT22;25554;44.954;10.068;2023-09-19T07:45:31;22.40;99.90
39881;DHT22;25554;44.954;10.068;2023-09-19T07:47:58;22.40;99.90
39881;DHT22;25554;44.954;10.068;2023-09-19T07:50:24;22.50;99.90
39881;DHT22;25554;44.954;10.068;2023-09-19T07:52:52;22.50;99.90
39881;DHT22;25554;44.954;10.068;2023-09-19T07:55:20;22.50;99.90
39881;DHT22;25554;44.954;10.068;2023-09-19T07:57:49;22.70;99.90
39881;DHT22;25554;44.954;10.068;2023-09-19T08:00:16;22.80;99.90
39881;DHT22;25554;44.954;10.068;2023-09-19T08:02:42;22.90;99.90
39881;DHT22;25554;44.954;10.068;2023-09-19T08:05:10;23.00;99.90
39881;DHT22;25554;44.954;10.068;2023-09-19T08:07:42;23.10;99.90
39881;DHT22;25554;44.954;10.068;2023-09-19T08:10:09;23.20;99.90
39881;DHT22;25554;44.954;10.068;2023-09-19T08:12:40;23.30;99.90
39881;DHT22;25554;44.954;10.068;2023-09-19T08:15:15;23.30;99.90
39881;DHT22;25554;44.954;10.068;2023-09-19T08:17:42;23.50;99.90
39881;DHT22;25554;44.954;10.068;2023-09-19T08:20:09;23.50;99.90
39881;DHT22;25554;44.954;10.068;2023-09-19T08:22:50;23.60;99.90
39881;DHT22;25554;44.954;10.068;2023-09-19T08:25:18;23.70;99.90
39881;DHT22;25554;44.954;10.068;2023-09-19T08:27:45;23.70;99.90
39881;DHT22;25554;44.954;10.068;2023-09-19T08:30:15;23.70;99.90
39881;DHT22;25554;44.954;10.068;2023-09-19T08:32:41;23.80;99.90
39881;DHT22;25554;44.954;10.068;2023-09-19T08:35:10;23.90;99.90
39881;DHT22;25554;44.954;10.068;2023-09-19T08:37:36;24.00;99.90
39881;DHT22;25554;44.954;10.068;2023-09-19T08:40:03;24.00;99.90
39881;DHT22;25554;44.954;10.068;2023-09-19T08:42:29;24.00;99.90
39881;DHT22;25554;44.954;10.068;2023-09-19T08:44:57;24.00;99.90
39881;DHT22;25554;44.954;10.068;2023-09-19T08:47:40;24.20;99.90
39881;DHT22;25554;44.954;10.068;2023-09-19T08:50:27;24.20;99.90
39881;DHT22;25554;44.954;10.068;2023-09-19T08:53:00;24.20;99.90
39881;DHT22;25554;44.954;10.068;2023-09-19T08:55:28;24.30;99.90
39881;DHT22;25554;44.954;10.068;2023-09-19T08:58:03;24.30;99.90
39881;DHT22;25554;44.954;10.068;2023-09-19T09:00:31;24.50;99.90
39881;DHT22;25554;44.954;10.068;2023-09-19T09:02:58;24.60;99.90
39881;DHT22;25554;44.954;10.068;2023-09-19T09:05:27;24.70;99.90
39881;DHT22;25554;44.954;10.068;2023-09-19T09:07:54;24.80;99.90
39881;DHT22;25554;44.954;10.068;2023-09-19T09:10:22;24.90;99.90
39881;DHT22;25554;44.954;10.068;2023-09-19T09:12:53;24.90;99.90
39881;DHT22;25554;44.954;10.068;2023-09-19T09:15:22;25.00;99.90
39881;DHT22;25554;44.954;10.068;2023-09-19T09:17:50;25.00;99.90
39881;DHT22;25554;44.954;10.068;2023-09-19T09:20:19;24.90;99.90
39881;DHT22;25554;44.954;10.068;2023-09-19T09:22:53;24.90;99.90
39881;DHT22;25554;44.954;10.068;2023-09-19T09:25:20;25.00;99.90
39881;DHT22;25554;44.954;10.068;2023-09-19T09:28:00;25.00;99.90
39881;DHT22;25554;44.954;10.068;2023-09-19T09:30:37;25.20;99.90
39881;DHT22;25554;44.954;10.068;2023-09-19T09:33:11;25.20;99.90
39881;DHT22;25554;44.954;10.068;2023-09-19T09:35:58;25.30;99.90
39881;DHT22;25554;44.954;10.068;2023-09-19T09:38:28;25.40;99.90
39881;DHT22;25554;44.954;10.068;2023-09-19T09:40:59;25.50;99.90
39881;DHT22;25554;44.954;10.068;2023-09-19T09:43:37;25.60;99.90
39881;DHT22;25554;44.954;10.068;2023-09-19T09:46:09;25.50;99.90
39881;DHT22;25554;44.954;10.068;2023-09-19T09:48:59;25.60;99.90
39881;DHT22;25554;44.954;10.068;2023-09-19T09:51:49;25.70;99.90
39881;DHT22;25554;44.954;10.068;2023-09-19T09:54:27;25.70;99.90
39881;DHT22;25554;44.954;10.068;2023-09-19T09:57:07;25.70;99.90
39881;DHT22;25554;44.954;10.068;2023-09-19T09:59:53;25.70;99.90
39881;DHT22;25554;44.954;10.068;2023-09-19T10:02:26;25.70;99.90
39881;DHT22;25554;44.954;10.068;2023-09-19T10:04:56;25.80;99.90
39881;DHT22;25554;44.954;10.068;2023-09-19T10:07:40;25.90;99.90
39881;DHT22;25554;44.954;10.068;2023-09-19T10:10:08;26.20;99.90
39881;DHT22;25554;44.954;10.068;2023-09-19T10:12:55;26.30;99.90
39881;DHT22;25554;44.954;10.068;2023-09-19T10:15:32;26.40;99.90
39881;DHT22;25554;44.954;10.068;2023-09-19T10:18:00;26.50;99.90
39881;DHT22;25554;44.954;10.068;2023-09-19T10:20:28;26.60;99.90
39881;DHT22;25554;44.954;10.068;2023-09-19T10:23:08;26.70;99.90
39881;DHT22;25554;44.954;10.068;2023-09-19T10:25:38;26.70;99.90
39881;DHT22;25554;44.954;10.068;2023-09-19T10:28:12;26.80;99.90
39881;DHT22;25554;44.954;10.068;2023-09-19T10:30:44;26.80;99.90
39881;DHT22;25554;44.954;10.068;2023-09-19T10:33:15;26.70;99.90
39881;DHT22;25554;44.954;10.068;2023-09-19T10:35:47;26.70;99.90
39881;DHT22;25554;44.954;10.068;2023-09-19T10:38:17;26.80;99.90
39881;DHT22;25554;44.954;10.068;2023-09-19T10:40:49;26.70;99.90
39881;DHT22;25554;44.954;10.068;2023-09-19T10:43:18;26.80;99.90
39881;DHT22;25554;44.954;10.068;2023-09-19T10:45:45;26.80;99.90
39881;DHT22;25554;44.954;10.068;2023-09-19T10:48:16;26.90;99.90
39881;DHT22;25554;44.954;10.068;2023-09-19T10:50:49;26.90;99.90
39881;DHT22;25554;44.954;10.068;2023-09-19T10:53:17;27.00;99.90
39881;DHT22;25554;44.954;10.068;2023-09-19T10:55:55;26.90;99.90
39881;DHT22;25554;44.954;10.068;2023-09-19T10:58:28;26.90;99.90
39881;DHT22;25554;44.954;10.068;2023-09-19T11:01:00;27.00;99.90
39881;DHT22;25554;44.954;10.068;2023-09-19T11:03:39;27.10;99.90
39881;DHT22;25554;44.954;10.068;2023-09-19T11:06:13;27.30;99.90
39881;DHT22;25554;44.954;10.068;2023-09-19T11:09:02;27.30;99.90
39881;DHT22;25554;44.954;10.068;2023-09-19T11:11:45;27.50;99.90
39881;DHT22;25554;44.954;10.068;2023-09-19T11:30:46;27.50;99.90
39881;DHT22;25554;44.954;10.068;2023-09-19T11:33:18;27.50;99.90
39881;DHT22;25554;44.954;10.068;2023-09-19T11:43:51;27.80;99.90
39881;DHT22;25554;44.954;10.068;2023-09-19T11:46:18;27.90;99.90
39881;DHT22;25554;44.954;10.068;2023-09-19T11:48:48;27.90;99.90
39881;DHT22;25554;44.954;10.068;2023-09-19T11:51:20;28.00;99.90
39881;DHT22;25554;44.954;10.068;2023-09-19T11:53:51;28.00;99.90
39881;DHT22;25554;44.954;10.068;2023-09-19T11:56:19;28.00;99.90
39881;DHT22;25554;44.954;10.068;2023-09-19T11:58:50;27.90;99.90
39881;DHT22;25554;44.954;10.068;2023-09-19T12:01:31;28.00;99.90
39881;DHT22;25554;44.954;10.068;2023-09-19T12:03:59;28.00;99.90
39881;DHT22;25554;44.954;10.068;2023-09-19T12:06:27;28.10;99.90
39881;DHT22;25554;44.954;10.068;2023-09-19T12:08:55;28.20;99.90
39881;DHT22;25554;44.954;10.068;2023-09-19T12:13:50;28.20;99.90
39881;DHT22;25554;44.954;10.068;2023-09-19T12:16:20;28.30;99.90
39881;DHT22;25554;44.954;10.068;2023-09-19T12:18:50;28.40;99.90
39881;DHT22;25554;44.954;10.068;2023-09-19T12:21:24;28.40;99.90
39881;DHT22;25554;44.954;10.068;2023-09-19T12:24:20;28.40;99.90
39881;DHT22;25554;44.954;10.068;2023-09-19T12:26:46;28.50;99.90
39881;DHT22;25554;44.954;10.068;2023-09-19T12:29:20;28.50;99.90
39881;DHT22;25554;44.954;10.068;2023-09-19T12:31:58;28.60;99.90
39881;DHT22;25554;44.954;10.068;2023-09-19T12:34:32;28.60;99.90
39881;DHT22;25554;44.954;10.068;2023-09-19T12:37:10;28.70;99.90
39881;DHT22;25554;44.954;10.068;2023-09-19T12:39:54;28.70;99.90
39881;DHT22;25554;44.954;10.068;2023-09-19T12:42:40;28.80;99.90
39881;DHT22;25554;44.954;10.068;2023-09-19T12:45:08;28.80;99.90
39881;DHT22;25554;44.954;10.068;2023-09-19T12:47:39;28.70;99.90
39881;DHT22;25554;44.954;10.068;2023-09-19T12:50:14;28.80;99.90
39881;DHT22;25554;44.954;10.068;2023-09-19T12:52:46;28.90;99.90
39881;DHT22;25554;44.954;10.068;2023-09-19T12:55:23;29.00;99.90
39881;DHT22;25554;44.954;10.068;2023-09-19T12:58:14;29.10;99.90
39881;DHT22;25554;44.954;10.068;2023-09-19T13:00:46;29.10;99.90
39881;DHT22;25554;44.954;10.068;2023-09-19T13:03:24;29.00;99.90
39881;DHT22;25554;44.954;10.068;2023-09-19T13:06:03;29.00;99.90
39881;DHT22;25554;44.954;10.068;2023-09-19T13:08:31;29.00;99.90
39881;DHT22;25554;44.954;10.068;2023-09-19T13:11:11;29.10;99.90
39881;DHT22;25554;44.954;10.068;2023-09-19T13:13:45;29.20;99.90
39881;DHT22;25554;44.954;10.068;2023-09-19T13:16:16;29.30;99.90
39881;DHT22;25554;44.954;10.068;2023-09-19T13:18:53;29.40;99.90
39881;DHT22;25554;44.954;10.068;2023-09-19T13:21:32;29.40;99.90
39881;DHT22;25554;44.954;10.068;2023-09-19T13:24:20;29.50;99.90
39881;DHT22;25554;44.954;10.068;2023-09-19T13:26:46;29.60;99.90
39881;DHT22;25554;44.954;10.068;2023-09-19T13:29:13;29.80;99.90
39881;DHT22;25554;44.954;10.068;2023-09-19T13:31:51;29.80;99.90
39881;DHT22;25554;44.954;10.068;2023-09-19T13:34:19;29.80;99.90
39881;DHT22;25554;44.954;10.068;2023-09-19T13:36:47;29.80;99.90
39881;DHT22;25554;44.954;10.068;2023-09-19T13:39:16;29.90;99.90
39881;DHT22;25554;44.954;10.068;2023-09-19T13:41:47;29.80;99.90
39881;DHT22;25554;44.954;10.068;2023-09-19T13:44:14;29.80;99.90
39881;DHT22;25554;44.954;10.068;2023-09-19T13:46:42;29.70;99.90
39881;DHT22;25554;44.954;10.068;2023-09-19T13:49:11;29.80;99.90
39881;DHT22;25554;44.954;10.068;2023-09-19T13:51:38;29.80;99.90
39881;DHT22;25554;44.954;10.068;2023-09-19T13:54:04;29.80;99.90
39881;DHT22;25554;44.954;10.068;2023-09-19T13:56:31;29.80;99.90
39881;DHT22;25554;44.954;10.068;2023-09-19T13:58:58;29.80;99.90
39881;DHT22;25554;44.954;10.068;2023-09-19T14:01:24;30.00;99.90
39881;DHT22;25554;44.954;10.068;2023-09-19T14:03:52;30.00;99.90
39881;DHT22;25554;44.954;10.068;2023-09-19T14:06:20;30.00;99.90
39881;DHT22;25554;44.954;10.068;2023-09-19T14:08:46;30.10;99.90
39881;DHT22;25554;44.954;10.068;2023-09-19T14:11:14;30.20;99.90
39881;DHT22;25554;44.954;10.068;2023-09-19T14:13:40;30.20;99.90
39881;DHT22;25554;44.954;10.068;2023-09-19T14:16:07;30.30;99.90
39881;DHT22;25554;44.954;10.068;2023-09-19T14:18:35;30.20;99.90
39881;DHT22;25554;44.954;10.068;2023-09-19T14:21:05;30.30;99.90
39881;DHT22;25554;44.954;10.068;2023-09-19T14:23:35;30.30;99.90
39881;DHT22;25554;44.954;10.068;2023-09-19T14:26:02;30.40;99.90
39881;DHT22;25554;44.954;10.068;2023-09-19T14:28:28;30.40;99.90
39881;DHT22;25554;44.954;10.068;2023-09-19T14:30:56;30.40;99.90
39881;DHT22;25554;44.954;10.068;2023-09-19T14:33:22;30.50;99.90
39881;DHT22;25554;44.954;10.068;2023-09-19T14:35:48;30.40;99.90
39881;DHT22;25554;44.954;10.068;2023-09-19T14:38:15;30.40;99.90
39881;DHT22;25554;44.954;10.068;2023-09-19T14:40:41;30.30;99.90
39881;DHT22;25554;44.954;10.068;2023-09-19T14:43:08;30.30;99.90
39881;DHT22;25554;44.954;10.068;2023-09-19T14:45:36;30.30;99.90
39881;DHT22;25554;44.954;10.068;2023-09-19T14:48:02;30.30;99.90
39881;DHT22;25554;44.954;10.068;2023-09-19T14:50:31;30.30;99.90
39881;DHT22;25554;44.954;10.068;2023-09-19T14:52:58;30.10;99.90
39881;DHT22;25554;44.954;10.068;2023-09-19T14:55:27;30.10;99.90
39881;DHT22;25554;44.954;10.068;2023-09-19T14:57:55;30.10;99.90
39881;DHT22;25554;44.954;10.068;2023-09-19T15:00:24;30.10;99.90
39881;DHT22;25554;44.954;10.068;2023-09-19T15:02:51;30.10;99.90
39881;DHT22;25554;44.954;10.068;2023-09-19T15:05:18;30.30;99.90
39881;DHT22;25554;44.954;10.068;2023-09-19T15:07:45;30.10;99.90
39881;DHT22;25554;44.954;10.068;2023-09-19T15:10:11;30.10;99.90
39881;DHT22;25554;44.954;10.068;2023-09-19T15:12:42;30.20;99.90
39881;DHT22;25554;44.954;10.068;2023-09-19T15:15:09;30.10;99.90
39881;DHT22;25554;44.954;10.068;2023-09-19T15:17:36;30.10;99.90
39881;DHT22;25554;44.954;10.068;2023-09-19T15:20:03;30.10;99.90
39881;DHT22;25554;44.954;10.068;2023-09-19T15:22:36;30.00;99.90
39881;DHT22;25554;44.954;10.068;2023-09-19T15:25:02;29.90;99.90
39881;DHT22;25554;44.954;10.068;2023-09-19T15:27:30;29.90;99.90
39881;DHT22;25554;44.954;10.068;2023-09-19T15:29:59;29.80;99.90
39881;DHT22;25554;44.954;10.068;2023-09-19T15:32:26;29.70;99.90
39881;DHT22;25554;44.954;10.068;2023-09-19T15:34:52;29.50;99.90
39881;DHT22;25554;44.954;10.068;2023-09-19T15:37:19;29.50;99.90
39881;DHT22;25554;44.954;10.068;2023-09-19T15:39:46;29.50;99.90
39881;DHT22;25554;44.954;10.068;2023-09-19T15:42:13;29.50;99.90
39881;DHT22;25554;44.954;10.068;2023-09-19T15:44:39;29.50;99.90
39881;DHT22;25554;44.954;10.068;2023-09-19T15:47:07;29.50;99.90
39881;DHT22;25554;44.954;10.068;2023-09-19T15:49:34;29.40;99.90
39881;DHT22;25554;44.954;10.068;2023-09-19T15:52:01;29.30;99.90
39881;DHT22;25554;44.954;10.068;2023-09-19T15:54:27;29.20;99.90
39881;DHT22;25554;44.954;10.068;2023-09-19T15:56:54;29.20;99.90
39881;DHT22;25554;44.954;10.068;2023-09-19T15:59:21;29.10;99.90
39881;DHT22;25554;44.954;10.068;2023-09-19T16:01:47;29.00;99.90
39881;DHT22;25554;44.954;10.068;2023-09-19T16:04:14;28.90;99.90
39881;DHT22;25554;44.954;10.068;2023-09-19T16:06:43;28.80;99.90
39881;DHT22;25554;44.954;10.068;2023-09-19T16:09:12;28.80;99.90
39881;DHT22;25554;44.954;10.068;2023-09-19T16:11:38;28.60;99.90